Time;durP1;ratioP1;P1;durP2;ratioP2;P2;SDS_P1;SDS_P2;PMS_P1;PMS_P2;Temp;Humidity;BMP_temperature;BMP_pressure;BME280_temperature;BME280_humidity;BME280_pressure;Samples;Min_cycle;Max_cycle;Signal;HPM_P1;HPM_P2
2021/05/06 00:34:18;;;;;;;7.23;2.10;;;5.20;99.90;;;;;;5034723;28;20752;-93
2021/05/06 00:36:44;;;;;;;9.30;1.90;;;5.20;99.90;;;;;;5035105;28;20622;-91
2021/05/06 00:39:14;;;;;;;6.57;1.93;;;5.20;99.90;;;;;;5034955;28;20174;-93
2021/05/06 01:07:55;;;;;;;7.77;2.20;;;5.10;99.90;;;;;;5035476;28;20296;-92
2021/05/06 01:13:29;;;;;;;10.67;2.00;;;5.10;99.90;;;;;;5035529;28;20198;-90
2021/05/06 01:15:55;;;;;;;6.17;1.90;;;5.00;99.90;;;;;;5034089;28;20205;-90
2021/05/06 01:18:35;;;;;;;11.57;2.00;;;5.00;99.90;;;;;;5033644;28;20191;-91
2021/05/06 01:21:05;;;;;;;8.47;1.90;;;5.00;99.90;;;;;;5034019;28;20166;-90
2021/05/06 01:23:57;;;;;;;10.60;2.57;;;5.00;99.90;;;;;;5034285;28;20198;-92
2021/05/06 01:27:15;;;;;;;10.90;2.00;;;5.00;99.90;;;;;;5034218;28;20225;-91
2021/05/06 01:29:31;;;;;;;11.33;2.33;;;4.90;99.90;;;;;;5037723;28;20270;-93
2021/05/06 01:32:43;;;;;;;8.20;1.70;;;4.90;99.90;;;;;;5035253;28;20190;-92
2021/05/06 01:34:53;;;;;;;11.10;2.60;;;4.80;99.90;;;;;;5037072;28;20197;-92
2021/05/06 01:40:47;;;;;;;13.83;2.40;;;4.80;99.90;;;;;;5035452;28;20629;-94
2021/05/06 02:00:55;;;;;;;6.13;1.60;;;4.60;99.90;;;;;;5035213;28;20162;-92
2021/05/06 02:03:26;;;;;;;7.00;2.10;;;4.60;99.90;;;;;;5033536;28;20210;-92
2021/05/06 02:06:00;;;;;;;5.37;2.00;;;4.60;99.90;;;;;;5377053;23;20189;-91
2021/05/06 02:08:38;;;;;;;7.90;2.23;;;4.60;99.90;;;;;;5032086;28;20197;-92
2021/05/06 02:11:08;;;;;;;9.57;2.10;;;4.60;99.90;;;;;;5033455;28;20648;-92
2021/05/06 02:14:06;;;;;;;7.03;1.70;;;4.60;99.90;;;;;;5032675;28;20770;-93
2021/05/06 02:16:42;;;;;;;9.93;1.90;;;4.50;99.90;;;;;;5033162;28;20216;-89
2021/05/06 02:19:08;;;;;;;9.07;2.00;;;4.60;99.90;;;;;;5032577;28;20280;-92
2021/05/06 02:21:42;;;;;;;5.00;1.70;;;4.50;99.90;;;;;;5032943;28;20216;-91
2021/05/06 02:24:08;;;;;;;5.43;1.87;;;4.60;99.90;;;;;;5033025;28;20170;-93
2021/05/06 02:26:37;;;;;;;7.67;1.83;;;4.60;99.90;;;;;;5032150;28;20227;-90
2021/05/06 02:29:09;;;;;;;6.70;1.43;;;4.50;99.90;;;;;;5037715;28;20617;-92
2021/05/06 02:31:35;;;;;;;10.17;2.20;;;4.50;99.90;;;;;;5039435;28;20174;-91
2021/05/06 02:34:02;;;;;;;10.13;2.00;;;4.50;99.90;;;;;;5039014;28;20514;-92
2021/05/06 02:36:36;;;;;;;4.97;2.03;;;4.50;99.90;;;;;;5039627;28;20181;-92
2021/05/06 02:39:05;;;;;;;4.77;1.63;;;4.50;99.90;;;;;;5039567;28;20178;-92
2021/05/06 02:41:31;;;;;;;5.03;1.40;;;4.50;99.90;;;;;;5039100;28;20181;-92
2021/05/06 02:43:58;;;;;;;9.30;1.80;;;4.50;99.90;;;;;;5040516;28;20159;-93
2021/05/06 02:46:26;;;;;;;7.57;1.87;;;4.50;99.90;;;;;;5039315;28;20195;-92
2021/05/06 02:48:53;;;;;;;6.50;1.90;;;4.40;99.90;;;;;;5039280;28;20615;-91
2021/05/06 02:51:23;;;;;;;6.47;2.03;;;4.40;99.90;;;;;;5039467;28;20220;-92
2021/05/06 02:53:54;;;;;;;5.73;1.77;;;4.40;99.90;;;;;;5039612;28;20174;-92
2021/05/06 02:56:42;;;;;;;4.83;1.67;;;4.40;99.90;;;;;;5028983;28;20194;-92
2021/05/06 03:04:45;;;;;;;7.83;1.90;;;4.30;99.90;;;;;;5038957;28;20255;-92
2021/05/06 03:07:16;;;;;;;12.13;1.73;;;4.30;99.90;;;;;;5043216;28;20244;-92
2021/05/06 03:20:55;;;;;;;7.03;1.77;;;4.30;99.90;;;;;;5040596;28;20161;-92
2021/05/06 03:23:40;;;;;;;7.97;1.70;;;4.30;99.90;;;;;;5040447;28;20217;-93
2021/05/06 03:26:13;;;;;;;7.93;1.60;;;4.30;99.90;;;;;;5039180;28;20205;-94
2021/05/06 03:28:50;;;;;;;4.03;1.60;;;4.30;99.90;;;;;;5039185;28;20165;-92
2021/05/06 03:43:28;;;;;;;8.37;1.60;;;4.20;99.90;;;;;;5037192;28;20217;-92
2021/05/06 03:49:27;;;;;;;11.73;2.07;;;4.20;99.90;;;;;;5036913;28;20219;-94
2021/05/06 04:12:39;;;;;;;8.27;1.83;;;4.30;99.90;;;;;;4997222;28;20213;-90
2021/05/06 04:18:25;;;;;;;4.70;1.90;;;4.40;99.90;;;;;;5001093;28;20670;-90
2021/05/06 04:38:11;;;;;;;8.93;2.17;;;4.80;99.90;;;;;;5016517;28;20591;-90
2021/05/06 04:54:22;;;;;;;9.47;2.50;;;5.10;99.90;;;;;;5016129;28;20166;-90
2021/05/06 04:57:06;;;;;;;11.93;2.93;;;5.10;99.90;;;;;;5015043;28;20177;-92
2021/05/06 05:04:55;;;;;;;9.03;2.60;;;5.30;99.90;;;;;;5015969;28;20174;-93
2021/05/06 05:10:12;;;;;;;8.40;2.67;;;5.50;99.90;;;;;;5035284;28;20269;-92
2021/05/06 05:24:19;;;;;;;7.30;2.73;;;5.60;99.90;;;;;;5035497;28;20166;-92
2021/05/06 05:26:56;;;;;;;6.43;2.80;;;5.60;99.90;;;;;;5033726;28;20206;-93
2021/05/06 05:29:23;;;;;;;5.37;2.70;;;5.70;99.90;;;;;;5034248;28;20166;-92
2021/05/06 05:31:48;;;;;;;8.93;3.13;;;5.70;99.90;;;;;;5034001;28;20664;-92
2021/05/06 05:37:00;;;;;;;7.63;3.13;;;5.70;99.90;;;;;;5035379;28;20173;-90
2021/05/06 05:40:14;;;;;;;15.97;3.67;;;5.80;99.90;;;;;;5033984;28;20167;-92
2021/05/06 05:56:41;;;;;;;7.70;3.87;;;5.70;99.90;;;;;;5012954;28;20163;-92
2021/05/06 05:59:17;;;;;;;7.97;4.10;;;5.60;99.90;;;;;;5023297;28;20192;-93
2021/05/06 06:01:43;;;;;;;9.43;4.87;;;5.60;99.90;;;;;;5022705;28;20724;-91
2021/05/06 06:04:09;;;;;;;8.83;4.33;;;5.50;99.90;;;;;;5027375;28;20198;-95
2021/05/06 06:06:40;;;;;;;11.47;4.73;;;5.40;99.90;;;;;;5013610;28;20265;-92
2021/05/06 06:09:06;;;;;;;9.73;4.70;;;5.50;99.90;;;;;;5040459;28;20645;-92
2021/05/06 06:11:33;;;;;;;11.97;5.27;;;5.50;99.90;;;;;;5052161;28;20468;-93
2021/05/06 06:14:05;;;;;;;11.37;4.43;;;5.40;99.90;;;;;;5030909;28;20201;-92
2021/05/06 06:16:33;;;;;;;12.90;5.17;;;5.40;99.90;;;;;;5029994;28;20202;-91
2021/05/06 06:19:01;;;;;;;9.60;5.20;;;5.30;99.90;;;;;;5024012;28;20316;-92
2021/05/06 06:24:19;;;;;;;10.90;5.60;;;5.10;99.90;;;;;;5063976;28;20743;-95
2021/05/06 06:26:48;;;;;;;11.07;6.40;;;5.00;99.90;;;;;;5033701;28;20749;-92
2021/05/06 06:29:17;;;;;;;13.70;6.63;;;5.00;99.90;;;;;;5029393;28;20295;-93
2021/05/06 06:31:52;;;;;;;11.43;6.43;;;4.80;99.90;;;;;;5053325;28;20208;-94
2021/05/06 06:34:17;;;;;;;8.43;5.97;;;4.80;99.90;;;;;;5026093;28;20278;-94
2021/05/06 06:36:45;;;;;;;8.37;5.90;;;4.80;99.90;;;;;;5051843;28;20649;-96
2021/05/06 06:39:31;;;;;;;11.23;6.33;;;4.80;99.90;;;;;;5043031;28;20227;-94
2021/05/06 06:42:00;;;;;;;12.93;6.20;;;4.70;99.90;;;;;;5051732;28;20211;-93
2021/05/06 06:47:07;;;;;;;12.17;5.70;;;4.70;99.90;;;;;;5052403;28;20300;-94
2021/05/06 06:49:50;;;;;;;9.60;6.27;;;4.80;99.90;;;;;;5044651;28;20255;-94
2021/05/06 06:52:17;;;;;;;12.00;5.83;;;4.80;99.90;;;;;;5043258;28;20298;-94
2021/05/06 06:54:46;;;;;;;10.50;5.30;;;4.70;99.90;;;;;;5047709;28;20186;-94
2021/05/06 06:57:12;;;;;;;9.67;6.17;;;4.70;99.90;;;;;;5038400;28;20213;-95
2021/05/06 06:59:39;;;;;;;8.20;5.70;;;4.70;99.90;;;;;;5071840;28;20553;-93
2021/05/06 07:02:05;;;;;;;13.77;6.30;;;4.80;99.90;;;;;;5071302;28;20237;-93
2021/05/06 07:04:37;;;;;;;9.10;6.47;;;4.80;99.90;;;;;;5065209;28;20255;-92
2021/05/06 07:07:09;;;;;;;10.57;6.70;;;4.80;99.90;;;;;;5071060;28;20256;-94
2021/05/06 07:09:37;;;;;;;9.17;7.37;;;4.80;99.90;;;;;;5062451;28;20256;-95
2021/05/06 07:12:13;;;;;;;11.87;7.63;;;4.80;99.90;;;;;;5072403;28;20204;-93
2021/05/06 07:14:41;;;;;;;11.83;8.17;;;4.80;99.90;;;;;;5044095;28;20748;-94
2021/05/06 07:17:22;;;;;;;11.03;7.83;;;4.80;99.90;;;;;;5055400;28;20836;-91
2021/05/06 07:19:53;;;;;;;12.73;9.60;;;4.80;99.90;;;;;;5028908;28;20316;-93
2021/05/06 07:22:20;;;;;;;13.27;10.07;;;4.90;99.90;;;;;;5046354;28;20208;-92
2021/05/06 07:24:46;;;;;;;11.67;9.80;;;4.90;99.90;;;;;;5055193;28;20207;-93
2021/05/06 07:27:15;;;;;;;11.73;9.47;;;4.90;99.90;;;;;;5054431;28;20217;-95
2021/05/06 07:29:40;;;;;;;12.40;9.40;;;4.90;99.90;;;;;;5008693;28;20312;-93
2021/05/06 07:32:41;;;;;;;12.87;10.60;;;4.90;99.90;;;;;;5033810;28;20832;-94
2021/05/06 07:35:08;;;;;;;14.37;10.33;;;4.90;99.90;;;;;;5047721;28;20233;-96
2021/05/06 07:37:42;;;;;;;14.80;10.83;;;4.90;99.90;;;;;;5066576;28;25040;-94
2021/05/06 07:40:14;;;;;;;12.13;9.70;;;4.90;99.90;;;;;;5075043;28;20275;-94
2021/05/06 07:42:47;;;;;;;13.30;10.53;;;5.00;99.90;;;;;;5067402;28;20237;-93
2021/05/06 07:45:30;;;;;;;12.73;9.63;;;5.00;99.90;;;;;;5074409;28;20268;-94
2021/05/06 07:47:56;;;;;;;11.93;9.73;;;5.10;99.90;;;;;;5067032;28;20921;-95
2021/05/06 07:50:28;;;;;;;12.73;9.80;;;5.10;99.90;;;;;;5074396;28;20184;-95
2021/05/06 07:53:10;;;;;;;12.03;9.83;;;5.20;99.90;;;;;;5067455;28;20647;-94
2021/05/06 07:55:39;;;;;;;13.93;10.00;;;5.30;99.90;;;;;;5074625;28;20192;-93
2021/05/06 07:58:26;;;;;;;12.57;8.97;;;5.40;99.90;;;;;;5068821;28;20243;-93
2021/05/06 08:00:55;;;;;;;14.53;9.80;;;5.60;99.90;;;;;;5055242;28;20193;-94
2021/05/06 08:03:22;;;;;;;12.63;9.23;;;5.70;99.90;;;;;;5039094;28;20320;-95
2021/05/06 08:05:56;;;;;;;13.53;9.60;;;5.90;99.90;;;;;;5033502;28;20269;-95
2021/05/06 08:08:31;;;;;;;11.47;9.10;;;6.00;99.90;;;;;;5031774;28;20262;-95
2021/05/06 08:11:05;;;;;;;12.27;9.50;;;6.20;99.90;;;;;;5033570;28;20198;-94
2021/05/06 08:13:30;;;;;;;12.00;8.73;;;6.30;99.90;;;;;;5034474;28;20287;-94
2021/05/06 08:15:57;;;;;;;12.33;9.23;;;6.30;99.90;;;;;;5035649;28;20220;-94
2021/05/06 08:18:31;;;;;;;10.30;9.00;;;6.40;99.90;;;;;;5036144;28;20189;-94
2021/05/06 08:21:11;;;;;;;12.60;9.43;;;6.30;99.90;;;;;;5035093;28;20178;-95
2021/05/06 08:23:40;;;;;;;10.57;9.47;;;6.30;99.90;;;;;;5015706;28;20207;-95
2021/05/06 08:26:13;;;;;;;12.97;9.43;;;6.30;99.90;;;;;;5023998;28;20218;-94
2021/05/06 08:28:43;;;;;;;11.70;8.53;;;6.40;99.90;;;;;;5036099;28;20214;-93
2021/05/06 08:31:09;;;;;;;9.20;7.93;;;6.60;99.90;;;;;;5035650;28;20179;-93
2021/05/06 08:33:36;;;;;;;10.37;8.33;;;6.70;99.90;;;;;;5034254;28;20217;-94
2021/05/06 08:36:21;;;;;;;9.03;7.43;;;6.80;99.90;;;;;;5036463;28;20193;-94
2021/05/06 08:38:46;;;;;;;10.90;7.90;;;7.10;99.90;;;;;;5036835;28;20550;-94
2021/05/06 08:41:17;;;;;;;7.53;6.27;;;7.10;99.90;;;;;;5037880;28;20209;-95
2021/05/06 08:43:53;;;;;;;7.37;5.93;;;7.00;99.90;;;;;;5037410;28;20669;-95
2021/05/06 08:46:37;;;;;;;7.33;6.10;;;7.00;99.90;;;;;;5037691;28;20212;-94
2021/05/06 08:49:07;;;;;;;9.03;6.30;;;7.00;99.90;;;;;;5037944;28;20170;-94
2021/05/06 08:51:42;;;;;;;7.90;6.20;;;7.00;99.90;;;;;;5036897;28;20215;-96
2021/05/06 08:54:17;;;;;;;6.07;5.27;;;7.00;99.90;;;;;;5037410;28;20208;-95
2021/05/06 08:56:42;;;;;;;5.93;5.33;;;7.00;99.90;;;;;;5037269;28;20238;-92
2021/05/06 08:59:08;;;;;;;6.67;5.90;;;7.10;99.90;;;;;;5035878;28;20178;-95
2021/05/06 09:01:37;;;;;;;5.37;4.87;;;7.40;99.90;;;;;;5036146;28;20217;-92
2021/05/06 09:04:03;;;;;;;5.47;4.30;;;7.60;99.90;;;;;;5038066;28;20190;-94
2021/05/06 09:06:30;;;;;;;4.70;4.20;;;7.60;99.90;;;;;;5035972;28;20210;-92
2021/05/06 09:09:03;;;;;;;5.00;4.17;;;7.50;99.90;;;;;;5035733;28;20260;-93
2021/05/06 09:11:37;;;;;;;6.83;4.63;;;7.50;99.90;;;;;;5023556;28;20357;-93
2021/05/06 09:14:13;;;;;;;6.43;4.90;;;7.50;99.90;;;;;;5034479;28;20196;-92
2021/05/06 09:16:43;;;;;;;7.20;5.00;;;7.70;99.90;;;;;;5036877;28;20190;-91
2021/05/06 09:19:25;;;;;;;7.17;5.60;;;7.70;99.90;;;;;;5027671;28;20197;-93
2021/05/06 09:21:51;;;;;;;6.87;5.07;;;7.70;99.90;;;;;;5032127;28;20210;-92
2021/05/06 09:24:26;;;;;;;6.97;6.10;;;7.60;99.90;;;;;;5035029;28;20201;-95
2021/05/06 09:26:59;;;;;;;6.17;5.57;;;7.80;99.90;;;;;;5034719;28;20220;-93
2021/05/06 09:29:44;;;;;;;8.27;6.13;;;8.00;99.90;;;;;;5034853;28;20273;-92
2021/05/06 09:32:23;;;;;;;9.50;4.93;;;8.30;99.90;;;;;;5033053;28;20566;-93
2021/05/06 09:34:56;;;;;;;9.27;6.40;;;8.60;99.90;;;;;;5022352;28;20183;-93
2021/05/06 09:37:29;;;;;;;9.53;5.20;;;9.00;99.90;;;;;;5033568;28;20270;-93
2021/05/06 09:40:07;;;;;;;6.40;4.70;;;9.10;99.90;;;;;;5033749;28;20198;-92
2021/05/06 09:42:53;;;;;;;7.03;4.70;;;9.20;99.90;;;;;;5032639;28;20206;-95
2021/05/06 09:45:42;;;;;;;10.60;6.53;;;9.20;99.90;;;;;;5023920;28;20281;-95
2021/05/06 09:48:09;;;;;;;6.73;4.60;;;9.30;99.90;;;;;;5031041;28;20285;-91
2021/05/06 09:50:37;;;;;;;6.60;4.90;;;9.30;99.90;;;;;;5031822;28;20190;-92
2021/05/06 09:53:12;;;;;;;10.93;5.47;;;9.20;99.90;;;;;;5033250;28;20245;-91
2021/05/06 09:55:43;;;;;;;9.03;5.57;;;9.10;99.90;;;;;;5032265;28;20186;-91
2021/05/06 09:58:16;;;;;;;9.03;5.50;;;9.00;99.90;;;;;;5032151;28;20240;-94
2021/05/06 10:00:51;;;;;;;9.83;5.67;;;9.10;99.90;;;;;;5032508;28;20218;-92
2021/05/06 10:03:19;;;;;;;9.43;5.67;;;9.10;99.90;;;;;;5031665;28;20208;-94
2021/05/06 10:05:56;;;;;;;7.90;5.47;;;9.00;99.90;;;;;;5031823;28;20195;-94
2021/05/06 10:08:38;;;;;;;6.73;4.93;;;9.00;99.90;;;;;;5026812;28;20217;-92
2021/05/06 10:11:21;;;;;;;7.43;5.00;;;8.90;99.90;;;;;;5031764;28;21097;-93
2021/05/06 10:13:49;;;;;;;7.00;5.13;;;8.80;99.90;;;;;;5032431;28;20178;-91
2021/05/06 10:16:17;;;;;;;7.80;4.70;;;8.80;99.90;;;;;;5032170;28;20178;-93
2021/05/06 10:18:45;;;;;;;7.33;4.53;;;8.90;99.90;;;;;;5030847;28;20194;-92
2021/05/06 10:23:59;;;;;;;5.77;3.60;;;9.60;99.90;;;;;;5033241;28;20716;-94
2021/05/06 10:26:26;;;;;;;6.60;3.60;;;9.70;99.90;;;;;;5032249;28;20245;-92
2021/05/06 10:28:52;;;;;;;7.03;3.70;;;9.60;99.90;;;;;;5032121;28;20362;-92
2021/05/06 10:31:21;;;;;;;9.93;4.50;;;9.50;99.90;;;;;;5031456;28;20201;-93
2021/05/06 10:33:57;;;;;;;6.57;4.57;;;9.50;99.90;;;;;;5031698;28;20186;-93
2021/05/06 10:36:26;;;;;;;6.50;4.17;;;9.50;99.90;;;;;;5031481;28;20190;-91
2021/05/06 10:38:52;;;;;;;6.13;4.00;;;9.40;99.90;;;;;;5032277;28;20638;-93
2021/05/06 10:41:34;;;;;;;5.50;3.80;;;9.30;99.90;;;;;;5031489;28;20245;-93
2021/05/06 10:44:05;;;;;;;8.27;4.10;;;9.20;99.90;;;;;;5027739;28;20201;-90
2021/05/06 10:49:42;;;;;;;8.53;4.40;;;9.10;99.90;;;;;;5034538;28;20672;-92
2021/05/06 10:52:18;;;;;;;6.80;3.40;;;9.00;99.90;;;;;;5035635;28;20205;-92
2021/05/06 10:54:55;;;;;;;6.23;3.50;;;8.80;99.90;;;;;;5033916;28;20205;-92
2021/05/06 10:57:33;;;;;;;6.03;3.50;;;8.70;99.90;;;;;;5035662;28;20645;-91
2021/05/06 11:00:24;;;;;;;6.57;3.30;;;8.70;99.90;;;;;;5035769;28;20194;-92
2021/05/06 11:02:54;;;;;;;8.50;3.13;;;8.70;99.90;;;;;;5031480;28;20206;-92
2021/05/06 11:05:34;;;;;;;6.73;3.00;;;8.70;99.90;;;;;;5035427;28;20243;-92
2021/05/06 11:08:02;;;;;;;4.83;2.93;;;9.00;99.90;;;;;;5032606;28;20241;-93
2021/05/06 11:10:53;;;;;;;4.80;3.43;;;9.40;99.90;;;;;;5035612;28;20569;-92
2021/05/06 11:13:23;;;;;;;6.00;3.33;;;9.60;99.90;;;;;;5034512;28;20206;-90
2021/05/06 11:16:24;;;;;;;6.17;3.40;;;9.80;99.90;;;;;;5036711;28;20167;-90
2021/05/06 11:19:00;;;;;;;5.67;3.30;;;10.10;99.90;;;;;;5036710;28;20174;-92
2021/05/06 11:21:45;;;;;;;7.70;3.17;;;10.20;99.90;;;;;;5036580;28;20209;-92
2021/05/06 11:24:27;;;;;;;6.47;2.93;;;10.10;99.90;;;;;;5036868;28;20170;-94
2021/05/06 11:27:33;;;;;;;5.27;3.07;;;9.80;99.90;;;;;;5036385;28;20670;-91
2021/05/06 11:33:25;;;;;;;6.70;3.03;;;9.50;99.90;;;;;;5037361;28;20238;-91
2021/05/06 11:36:18;;;;;;;8.10;3.37;;;9.40;99.90;;;;;;5036190;28;20543;-93
2021/05/06 11:39:15;;;;;;;3.87;2.27;;;9.30;99.90;;;;;;5036312;28;20265;-93
2021/05/06 11:41:42;;;;;;;5.97;2.63;;;9.10;99.90;;;;;;5036131;28;20192;-91
2021/05/06 11:44:08;;;;;;;4.20;2.60;;;9.00;99.90;;;;;;5036418;28;20197;-93
2021/05/06 11:46:40;;;;;;;3.60;2.30;;;9.10;99.90;;;;;;5036444;28;20199;-92
2021/05/06 11:49:17;;;;;;;3.97;2.23;;;9.10;99.90;;;;;;5036331;28;20163;-93
2021/05/06 11:51:53;;;;;;;5.80;2.07;;;9.10;99.90;;;;;;5037078;28;20204;-93
2021/05/06 11:54:23;;;;;;;5.70;2.37;;;9.20;99.90;;;;;;5037455;28;20154;-91
2021/05/06 11:57:26;;;;;;;4.03;2.40;;;9.20;99.90;;;;;;5036454;28;20189;-91
2021/05/06 12:03:40;;;;;;;3.23;1.90;;;9.90;99.90;;;;;;5036951;28;20554;-90
2021/05/06 12:06:41;;;;;;;4.80;2.30;;;10.20;99.50;;;;;;5035985;28;20637;-93
2021/05/06 12:09:08;;;;;;;5.07;2.27;;;10.50;99.40;;;;;;5027757;28;20224;-92
2021/05/06 12:11:44;;;;;;;4.13;2.50;;;10.70;98.50;;;;;;5035171;28;20193;-93
2021/05/06 12:14:14;;;;;;;3.67;2.00;;;10.80;99.00;;;;;;5035605;28;20174;-91
2021/05/06 12:16:59;;;;;;;4.10;2.50;;;11.10;97.80;;;;;;5035516;28;20177;-91
2021/05/06 12:19:25;;;;;;;8.80;2.70;;;11.30;99.40;;;;;;5035631;28;20175;-91
2021/05/06 12:22:15;;;;;;;5.30;2.70;;;11.50;94.60;;;;;;5034924;28;20207;-92
2021/05/06 12:24:53;;;;;;;4.80;2.43;;;11.50;98.00;;;;;;5035348;28;20567;-91
2021/05/06 12:27:22;;;;;;;3.53;2.30;;;11.60;97.70;;;;;;5035177;28;20208;-91
2021/05/06 12:30:03;;;;;;;3.30;2.10;;;11.60;98.10;;;;;;5035553;28;20604;-93
2021/05/06 12:32:35;;;;;;;4.97;2.60;;;11.50;98.10;;;;;;5035954;28;20289;-91
2021/05/06 12:35:08;;;;;;;5.23;2.53;;;11.30;98.30;;;;;;5034880;28;20588;-92
2021/05/06 12:37:53;;;;;;;5.07;2.40;;;11.00;97.10;;;;;;5035011;28;20542;-93
2021/05/06 12:40:26;;;;;;;4.43;2.57;;;10.80;98.80;;;;;;5034870;28;20537;-92
2021/05/06 12:42:53;;;;;;;3.07;2.20;;;10.90;98.50;;;;;;5034987;28;20728;-93
2021/05/06 12:45:25;;;;;;;4.40;2.57;;;10.80;97.70;;;;;;5035179;28;20571;-94
2021/05/06 12:47:57;;;;;;;6.10;2.37;;;10.90;97.30;;;;;;5035103;28;20210;-92
2021/05/06 12:50:32;;;;;;;5.53;2.30;;;10.90;95.20;;;;;;5035017;28;20265;-91
2021/05/06 12:53:11;;;;;;;3.87;2.43;;;10.90;95.90;;;;;;5035797;28;20194;-94
2021/05/06 12:55:45;;;;;;;5.13;2.23;;;10.80;96.50;;;;;;5035196;28;20175;-92
2021/05/06 12:58:23;;;;;;;4.53;2.43;;;10.60;96.70;;;;;;5034949;28;20174;-91
2021/05/06 13:00:52;;;;;;;3.23;2.30;;;10.40;96.70;;;;;;5035069;28;20635;-94
2021/05/06 13:03:42;;;;;;;4.83;2.10;;;10.50;96.60;;;;;;5034798;28;20253;-90
2021/05/06 13:06:17;;;;;;;4.83;2.37;;;10.50;97.10;;;;;;5034808;28;20248;-93
2021/05/06 13:08:47;;;;;;;6.20;2.50;;;10.60;96.00;;;;;;5034628;28;20218;-91
2021/05/06 13:11:28;;;;;;;3.20;2.20;;;10.80;97.30;;;;;;5034388;28;20178;-93
2021/05/06 13:14:04;;;;;;;5.93;2.40;;;10.90;96.00;;;;;;5033876;28;20197;-92
2021/05/06 13:16:51;;;;;;;4.30;2.13;;;10.80;95.00;;;;;;5034823;28;20261;-91
2021/05/06 13:19:24;;;;;;;4.37;2.10;;;10.70;95.90;;;;;;5034458;28;20196;-93
2021/05/06 13:22:04;;;;;;;4.60;2.27;;;10.70;96.50;;;;;;5034902;28;20218;-92
2021/05/06 13:24:45;;;;;;;4.37;2.17;;;10.80;95.60;;;;;;5034136;28;20257;-92
2021/05/06 13:27:19;;;;;;;5.27;2.07;;;11.10;93.50;;;;;;5034121;28;20256;-92
2021/05/06 13:30:06;;;;;;;4.03;2.40;;;11.10;94.00;;;;;;5034326;28;20676;-92
2021/05/06 13:32:41;;;;;;;4.13;2.37;;;11.10;92.50;;;;;;5033796;28;20202;-91
2021/05/06 13:35:20;;;;;;;5.07;2.50;;;11.00;92.90;;;;;;5033829;28;20162;-92
2021/05/06 13:37:48;;;;;;;3.73;2.43;;;10.80;94.30;;;;;;5034321;28;20262;-92
2021/05/06 13:40:15;;;;;;;3.53;2.10;;;10.70;95.60;;;;;;5034402;28;20170;-94
2021/05/06 13:42:42;;;;;;;4.17;2.20;;;10.70;95.80;;;;;;5033557;28;20670;-92
2021/05/06 13:45:12;;;;;;;5.20;2.60;;;10.80;94.70;;;;;;5033689;28;20181;-95
2021/05/06 13:48:15;;;;;;;3.20;2.20;;;11.00;98.20;;;;;;5033740;28;20202;-92
2021/05/06 13:50:44;;;;;;;6.30;2.50;;;11.30;96.60;;;;;;5033743;28;20178;-91
2021/05/06 13:53:22;;;;;;;4.83;2.40;;;11.50;93.60;;;;;;5033894;28;20230;-90
2021/05/06 13:55:52;;;;;;;5.00;2.40;;;11.60;95.50;;;;;;5034188;28;20190;-91
2021/05/06 13:58:30;;;;;;;6.87;2.63;;;11.60;94.10;;;;;;5034419;28;20230;-90
2021/05/06 14:01:05;;;;;;;4.73;2.40;;;11.60;95.30;;;;;;5033554;28;20166;-90
2021/05/06 14:03:39;;;;;;;7.03;2.93;;;11.70;96.30;;;;;;5034193;28;20190;-94
2021/05/06 14:06:14;;;;;;;4.27;2.50;;;11.70;91.90;;;;;;5033661;28;20268;-93
2021/05/06 14:08:48;;;;;;;4.23;2.30;;;11.80;94.20;;;;;;5033650;28;20222;-92
2021/05/06 14:11:28;;;;;;;5.43;2.63;;;11.90;94.80;;;;;;5033682;28;20233;-91
2021/05/06 14:14:03;;;;;;;3.30;2.47;;;12.10;96.10;;;;;;5034643;28;20189;-94
2021/05/06 14:16:40;;;;;;;5.57;2.50;;;12.20;95.90;;;;;;5033608;28;20182;-92
2021/05/06 14:19:11;;;;;;;5.70;3.07;;;12.20;93.90;;;;;;5034065;28;20182;-92
2021/05/06 14:21:47;;;;;;;3.78;2.53;;;12.10;95.10;;;;;;5033427;28;20193;-92
2021/05/06 14:24:14;;;;;;;4.57;2.40;;;12.00;94.40;;;;;;5035039;28;20190;-93
2021/05/06 14:26:50;;;;;;;3.43;2.57;;;12.00;94.30;;;;;;5033234;28;20214;-91
2021/05/06 14:29:17;;;;;;;4.45;2.30;;;12.20;92.20;;;;;;5033299;28;20209;-93
2021/05/06 14:31:45;;;;;;;5.57;2.45;;;12.10;94.10;;;;;;5033223;28;20205;-93
2021/05/06 14:34:13;;;;;;;3.40;2.03;;;12.10;94.00;;;;;;5033658;28;20683;-92
2021/05/06 14:37:10;;;;;;;4.45;2.45;;;12.20;93.70;;;;;;5033360;28;20175;-93
2021/05/06 14:39:52;;;;;;;3.42;2.25;;;12.30;90.50;;;;;;5033548;28;20705;-92
2021/05/06 14:42:56;;;;;;;3.70;2.55;;;12.30;91.90;;;;;;5033063;28;20614;-91
2021/05/06 14:45:32;;;;;;;7.23;2.50;;;12.30;93.20;;;;;;5032986;28;20175;-93
2021/05/06 14:51:24;;;;;;;8.77;2.85;;;12.40;85.50;;;;;;5034805;28;20166;-94
2021/05/06 14:53:55;;;;;;;6.10;2.47;;;12.30;91.40;;;;;;5034050;28;20170;-94
2021/05/06 14:57:08;;;;;;;5.22;2.60;;;12.20;91.70;;;;;;5033801;28;20623;-92
2021/05/06 14:59:34;;;;;;;5.32;2.17;;;12.10;91.90;;;;;;5034418;28;20182;-93
2021/05/06 15:02:02;;;;;;;5.18;2.42;;;12.10;91.40;;;;;;5035650;28;20209;-93
2021/05/06 15:04:28;;;;;;;4.82;2.00;;;12.00;91.50;;;;;;5034057;28;20202;-92
2021/05/06 15:06:54;;;;;;;16.07;3.70;;;12.10;92.10;;;;;;5033368;28;20241;-92
2021/05/06 15:09:22;;;;;;;6.25;3.15;;;12.10;92.00;;;;;;5032791;28;20226;-91
2021/05/06 15:11:56;;;;;;;6.28;2.42;;;12.10;92.90;;;;;;5033245;28;20198;-93
2021/05/06 15:14:26;;;;;;;6.75;2.30;;;12.10;90.60;;;;;;5033700;28;20268;-93
2021/05/06 15:16:57;;;;;;;3.57;1.87;;;12.10;91.20;;;;;;5033076;28;20193;-93
2021/05/06 15:19:23;;;;;;;15.70;3.47;;;12.10;91.50;;;;;;5033152;28;20313;-93
2021/05/06 15:21:50;;;;;;;66.85;7.80;;;12.00;90.90;;;;;;5018472;28;20234;-94
2021/05/06 15:24:23;;;;;;;17.58;3.70;;;12.00;92.20;;;;;;5013595;28;20640;-95
2021/05/06 15:26:50;;;;;;;5.57;2.10;;;11.90;91.50;;;;;;5013479;28;20206;-93
2021/05/06 15:29:22;;;;;;;3.23;2.00;;;11.70;90.90;;;;;;5013787;28;20175;-93
2021/05/06 15:31:59;;;;;;;4.18;2.10;;;11.50;92.70;;;;;;5031748;28;20544;-94
2021/05/06 15:34:29;;;;;;;6.13;2.17;;;11.40;91.70;;;;;;5032990;28;20185;-93
2021/05/06 15:36:56;;;;;;;4.70;2.07;;;11.40;91.90;;;;;;5035908;28;20233;-92
2021/05/06 15:39:24;;;;;;;4.20;2.30;;;11.40;92.80;;;;;;5036455;28;20273;-93
2021/05/06 15:41:58;;;;;;;4.73;2.33;;;11.40;92.20;;;;;;5036738;28;20202;-93
2021/05/06 15:44:29;;;;;;;3.67;2.20;;;11.50;93.20;;;;;;5036380;28;20179;-94
2021/05/06 15:47:04;;;;;;;3.80;2.30;;;11.50;92.90;;;;;;5036348;28;20301;-94
2021/05/06 15:49:48;;;;;;;3.77;2.20;;;11.70;93.70;;;;;;5036560;28;20688;-93
2021/05/06 15:52:22;;;;;;;4.53;2.20;;;11.70;92.20;;;;;;5036166;28;20198;-93
2021/05/06 15:55:09;;;;;;;3.77;2.50;;;11.70;91.10;;;;;;5037745;28;20170;-93
2021/05/06 15:57:42;;;;;;;4.37;1.87;;;11.70;91.70;;;;;;5037087;28;20178;-94
2021/05/06 16:00:24;;;;;;;5.07;1.80;;;11.70;90.00;;;;;;5035946;28;20232;-96
2021/05/06 16:03:00;;;;;;;3.30;1.90;;;11.70;90.70;;;;;;5036131;28;20253;-93
2021/05/06 16:05:28;;;;;;;2.53;1.87;;;11.70;90.00;;;;;;5037724;28;20707;-94
2021/05/06 16:07:59;;;;;;;3.87;2.27;;;11.60;90.20;;;;;;5035762;28;20222;-93
2021/05/06 16:10:34;;;;;;;2.13;1.90;;;11.50;89.20;;;;;;5036281;28;20179;-94
2021/05/06 16:13:00;;;;;;;5.43;2.13;;;11.50;88.40;;;;;;5035722;28;20198;-94
2021/05/06 16:15:28;;;;;;;3.40;2.17;;;11.50;90.80;;;;;;5036547;28;20269;-95
2021/05/06 16:18:09;;;;;;;2.83;1.90;;;11.50;92.10;;;;;;5037010;28;20210;-92
2021/05/06 16:20:47;;;;;;;3.67;2.30;;;11.50;90.40;;;;;;5038291;28;20610;-93
2021/05/06 16:23:14;;;;;;;2.63;2.10;;;11.50;83.30;;;;;;5036043;28;20203;-93
2021/05/06 16:25:58;;;;;;;4.37;2.30;;;11.50;85.80;;;;;;5036701;28;20708;-94
2021/05/06 16:28:25;;;;;;;4.73;2.27;;;11.40;85.40;;;;;;5036620;28;20190;-94
2021/05/06 16:30:52;;;;;;;2.20;1.90;;;11.40;89.60;;;;;;5036678;28;20182;-95
2021/05/06 16:33:37;;;;;;;2.83;1.80;;;11.30;89.40;;;;;;5036503;28;20198;-93
2021/05/06 16:44:55;;;;;;;4.50;1.97;;;11.30;90.50;;;;;;5037499;28;20170;-94
2021/05/06 16:47:28;;;;;;;2.40;1.67;;;11.20;90.10;;;;;;5036585;28;20306;-95
2021/05/06 16:50:14;;;;;;;3.38;1.80;;;11.30;83.30;;;;;;5035903;28;20261;-95
2021/05/06 16:52:48;;;;;;;2.97;1.70;;;11.20;90.00;;;;;;5035878;28;20198;-94
2021/05/06 16:55:17;;;;;;;5.37;2.13;;;11.10;90.10;;;;;;5035685;28;20173;-94
2021/05/06 16:58:00;;;;;;;5.10;1.93;;;11.10;90.80;;;;;;5037097;28;20243;-92
2021/05/06 17:00:42;;;;;;;3.27;1.90;;;11.10;90.40;;;;;;5036625;28;20174;-93
2021/05/06 17:03:09;;;;;;;3.73;1.80;;;11.00;90.70;;;;;;5036504;28;20260;-94
2021/05/06 17:05:49;;;;;;;2.57;1.57;;;11.00;91.50;;;;;;5036963;28;20178;-93
2021/05/06 17:08:28;;;;;;;3.80;1.70;;;11.00;91.60;;;;;;5036885;28;20234;-92
2021/05/06 17:10:57;;;;;;;3.42;1.60;;;10.90;90.60;;;;;;5039057;28;20159;-93
2021/05/06 17:13:25;;;;;;;4.30;1.80;;;10.90;90.80;;;;;;5036618;28;20685;-94
2021/05/06 17:15:52;;;;;;;4.20;2.23;;;10.90;91.30;;;;;;5038461;28;20182;-94
2021/05/06 17:18:18;;;;;;;5.17;2.10;;;10.80;89.20;;;;;;5039060;28;20181;-92
2021/05/06 17:20:47;;;;;;;2.27;1.70;;;10.80;88.70;;;;;;5036597;28;20186;-94
2021/05/06 17:23:14;;;;;;;4.53;1.90;;;10.80;90.40;;;;;;5034437;28;20198;-92